Welcome to Northern Hawkes Bay. New Zealand.
PWS Header
      nz Flag



Hit Counter


W3C Valid W3C Valid logo


    Wairoa

Select any of the Stations below to visit their websites.










Historic Data from Weather Underground
Select the location of interest below. Wairoa is the default. Please have patience, this Data is slow to load in.
Northern Hawkes Bay Historical Data
Daily Summary for April 30, 2017 Units:  Metric    English   Both
« Previous Day
Next Day »
Daily Weekly Monthly Yearly Custom
  High: Low: Average:
Temperature: 22.4 °C 11.5 °C 16.3 °C
Dew Point: 17.6 °C 11.1 °C 14.3 °C
Humidity: 99% 70% 89%
Wind Speed: 24.5km/h 0.0km/h 4.2km/h
Wind Gust: 39.3km/h - -
Wind- - SSW
Pressure: 1003.3 hPa 991.8 hPa -
Precipitation: 15.5 mm    
Historical Graphs
 
 
Tabular Data for April 30, 2017
Time Temperature Dew Point Pressure Wind Wind Speed Wind Gust Humidity Rainfall Rate (Hourly) solar
00:02 18.8 °C 14.5 °C 1003.3 hPa NNE 5.0 km/h 19.5 km/h 76% 0.0 mm 0 W/m2
00:07 18.7 °C 14.4 °C 1003.3 hPa North 5.0 km/h 19.5 km/h 76% 0.0 mm 0 W/m2
00:12 18.5 °C 14.4 °C 1003.3 hPa NNE 11.1 km/h 19.5 km/h 77% 0.0 mm 0 W/m2
00:17 18.5 °C 14.6 °C 1002.9 hPa NNE 5.0 km/h 19.5 km/h 78% 0.0 mm 0 W/m2
00:22 18.1 °C 14.6 °C 1002.9 hPa NNE 6.1 km/h 19.5 km/h 80% 0.3 mm 0 W/m2
00:27 17.9 °C 14.8 °C 1002.9 hPa NNE 2.6 km/h 11.1 km/h 82% 0.3 mm 0 W/m2
00:32 17.7 °C 14.8 °C 1003.3 hPa NE 2.6 km/h 9.7 km/h 83% 0.5 mm 0 W/m2
00:37 17.5 °C 14.8 °C 1002.9 hPa Calm   17.2 km/h 84% 0.5 mm 0 W/m2
00:42 17.3 °C 14.8 °C 1002.9 hPa NNE 1.1 km/h 17.2 km/h 85% 0.5 mm 0 W/m2
00:47 17.2 °C 14.8 °C 1002.9 hPa North 1.1 km/h 9.7 km/h 86% 0.5 mm 0 W/m2
00:52 17.2 °C 15.0 °C 1002.9 hPa Calm   9.7 km/h 87% 0.5 mm 0 W/m2
00:57 17.2 °C 15.0 °C 1002.9 hPa North 1.1 km/h 8.7 km/h 87% 0.5 mm 0 W/m2
01:02 17.2 °C 14.8 °C 1002.9 hPa Calm   8.7 km/h 86% 0.5 mm 0 W/m2
01:07 17.3 °C 14.9 °C 1002.6 hPa North 7.2 km/h 9.7 km/h 86% 0.5 mm 0 W/m2
01:12 17.5 °C 15.2 °C 1002.6 hPa North 8.7 km/h 14.8 km/h 86% 0.5 mm 0 W/m2
01:17 17.7 °C 15.0 °C 1002.3 hPa Calm   14.8 km/h 84% 0.5 mm 0 W/m2
01:22 17.7 °C 15.0 °C 1002.3 hPa NNE 2.6 km/h 13.4 km/h 84% 0.3 mm 0 W/m2
01:27 17.7 °C 15.0 °C 1002.3 hPa NNE 1.1 km/h 13.4 km/h 84% 0.5 mm 0 W/m2
01:32 17.7 °C 15.0 °C 1001.9 hPa NE 5.0 km/h 9.7 km/h 84% 0.3 mm 0 W/m2
01:37 17.6 °C 14.9 °C 1001.9 hPa ENE 1.1 km/h 9.7 km/h 84% 0.3 mm 0 W/m2
01:42 17.7 °C 15.0 °C 1001.9 hPa ENE 3.5 km/h 9.7 km/h 84% 0.3 mm 0 W/m2
01:47 17.8 °C 14.9 °C 1001.6 hPa Calm   11.1 km/h 83% 0.3 mm 0 W/m2
01:52 17.8 °C 14.7 °C 1001.2 hPa NNE 3.5 km/h 11.1 km/h 82% 0.3 mm 0 W/m2
01:57 17.9 °C 14.6 °C 1001.6 hPa NNE 7.2 km/h 12.2 km/h 81% 0.3 mm 0 W/m2
02:02 18.0 °C 14.3 °C 1001.2 hPa NNE 5.0 km/h 13.4 km/h 79% 0.3 mm 0 W/m2
02:07 18.2 °C 14.3 °C 1001.6 hPa NNE 7.2 km/h 15.8 km/h 78% 0.3 mm 0 W/m2
02:12 18.2 °C 14.3 °C 1000.9 hPa NNE 5.0 km/h 15.8 km/h 78% 0.3 mm 0 W/m2
02:17 18.2 °C 14.3 °C 1000.9 hPa NNE 2.6 km/h 11.1 km/h 78% 0.3 mm 0 W/m2
02:22 18.1 °C 14.2 °C 1000.6 hPa NNE 2.6 km/h 11.1 km/h 78% 0.3 mm 0 W/m2
02:27 18.1 °C 14.2 °C 1000.9 hPa NE 2.6 km/h 9.7 km/h 78% 0.0 mm 0 W/m2
02:32 18.0 °C 14.1 °C 1000.6 hPa Calm   9.7 km/h 78% 0.0 mm 0 W/m2
02:37 18.0 °C 14.3 °C 1000.6 hPa NE 1.1 km/h 8.7 km/h 79% 0.0 mm 0 W/m2
02:42 17.9 °C 14.2 °C 1000.6 hPa NNE 5.0 km/h 8.7 km/h 79% 0.0 mm 0 W/m2
02:47 17.9 °C 14.2 °C 1000.2 hPa NE 1.1 km/h 7.2 km/h 79% 0.0 mm 0 W/m2
02:52 17.9 °C 14.4 °C 1000.6 hPa Calm   7.2 km/h 80% 0.0 mm 0 W/m2
02:57 17.9 °C 14.4 °C 1000.6 hPa Calm   7.2 km/h 80% 0.0 mm 0 W/m2
03:02 17.8 °C 14.3 °C 1000.6 hPa Calm   2.6 km/h 80% 0.0 mm 0 W/m2
03:07 17.7 °C 14.2 °C 999.9 hPa Calm     80% 0.0 mm 0 W/m2
03:12 17.5 °C 14.2 °C 999.9 hPa Calm     81% 0.0 mm 0 W/m2
03:17 17.3 °C 14.2 °C 999.5 hPa Calm     82% 0.3 mm 0 W/m2
03:22 17.0 °C 14.1 °C 999.5 hPa Calm     83% 0.3 mm 0 W/m2
03:27 16.8 °C 14.3 °C 999.5 hPa Calm     85% 0.3 mm 0 W/m2
03:32 16.6 °C 14.3 °C 999.5 hPa Calm   1.1 km/h 86% 0.5 mm 0 W/m2
03:51 16.2 °C 14.6 °C 998.9 hPa Calm   3.5 km/h 90% 0.5 mm 0 W/m2
03:56 16.2 °C 14.9 °C 998.9 hPa Calm   6.1 km/h 92% 0.5 mm 0 W/m2
04:01 16.3 °C 15.0 °C 998.9 hPa North 2.6 km/h 6.1 km/h 92% 0.5 mm 0 W/m2
04:06 16.4 °C 15.1 °C 998.9 hPa NNE 5.0 km/h 8.7 km/h 92% 0.5 mm 0 W/m2
04:11 16.6 °C 15.3 °C 998.5 hPa NNE 5.0 km/h 9.7 km/h 92% 0.5 mm 0 W/m2
04:16 16.7 °C 15.2 °C 998.5 hPa NNE 1.1 km/h 11.1 km/h 91% 0.3 mm 0 W/m2
04:21 16.8 °C 15.3 °C 998.5 hPa NNE 2.6 km/h 11.1 km/h 91% 0.3 mm 0 W/m2
04:26 16.8 °C 15.2 °C 998.5 hPa NNE 6.1 km/h 9.7 km/h 90% 0.3 mm 0 W/m2
04:31 16.9 °C 15.3 °C 998.2 hPa NNE 5.0 km/h 9.7 km/h 90% 0.0 mm 0 W/m2
04:36 16.9 °C 15.3 °C 998.2 hPa North 2.6 km/h 9.7 km/h 90% 0.0 mm 0 W/m2
04:41 17.0 °C 15.2 °C 997.9 hPa Calm   8.7 km/h 89% 0.0 mm 0 W/m2
04:47 17.0 °C 15.0 °C 997.9 hPa Calm   6.1 km/h 88% 0.0 mm 0 W/m2
04:52 16.9 °C 15.1 °C 997.9 hPa Calm   6.1 km/h 89% 0.0 mm 0 W/m2
04:57 16.8 °C 15.0 °C 997.9 hPa Calm     89% 0.0 mm 0 W/m2
05:02 16.7 °C 15.1 °C 997.9 hPa Calm   1.1 km/h 90% 0.0 mm 0 W/m2
05:07 16.4 °C 14.9 °C 997.9 hPa Calm   5.0 km/h 91% 0.0 mm 0 W/m2
05:12 16.3 °C 15.0 °C 997.5 hPa Calm   5.0 km/h 92% 0.0 mm 0 W/m2
05:17 16.2 °C 14.9 °C 997.5 hPa Calm     92% 0.0 mm 0 W/m2
05:23 16.2 °C 14.9 °C 997.9 hPa North 1.1 km/h 3.5 km/h 92% 0.0 mm 0 W/m2
05:28 16.2 °C 14.9 °C 997.9 hPa NNW 1.1 km/h 6.1 km/h 92% 0.0 mm 0 W/m2
05:33 16.2 °C 15.1 °C 997.9 hPa North 1.1 km/h 7.2 km/h 93% 0.0 mm 0 W/m2
05:38 16.2 °C 15.1 °C 997.5 hPa Calm   7.2 km/h 93% 0.0 mm 0 W/m2
05:43 16.2 °C 15.1 °C 997.2 hPa North 6.1 km/h 11.1 km/h 93% 0.3 mm 0 W/m2
05:48 16.5 °C 15.6 °C 996.8 hPa NE 7.2 km/h 14.8 km/h 94% 0.3 mm 0 W/m2
05:53 16.8 °C 15.8 °C 996.2 hPa ENE 12.2 km/h 20.9 km/h 94% 0.5 mm 0 W/m2
05:58 17.1 °C 15.8 °C 996.2 hPa NE 6.1 km/h 20.9 km/h 92% 0.5 mm 0 W/m2
06:03 17.2 °C 15.7 °C 995.8 hPa NE 6.1 km/h 17.2 km/h 91% 0.5 mm 0 W/m2
06:08 17.3 °C 15.8 °C 996.2 hPa NE 3.5 km/h 13.4 km/h 91% 0.5 mm 0 W/m2
06:13 17.4 °C 15.9 °C 996.2 hPa North 7.2 km/h 12.2 km/h 91% 0.5 mm 0 W/m2
06:18 17.4 °C 15.8 °C 996.2 hPa NNW 7.2 km/h 12.2 km/h 90% 0.5 mm 0 W/m2
06:23 17.0 °C 15.2 °C 996.2 hPa Calm   12.2 km/h 89% 0.5 mm 0 W/m2
06:28 16.7 °C 15.2 °C 996.2 hPa Calm   11.1 km/h 91% 0.5 mm 0 W/m2
06:33 16.5 °C 15.1 °C 996.2 hPa Calm   3.5 km/h 91% 0.5 mm 0 W/m2
06:38 16.4 °C 15.1 °C 996.2 hPa Calm     92% 0.5 mm 0 W/m2
06:43 16.2 °C 14.9 °C 996.2 hPa Calm     92% 0.3 mm 0 W/m2
06:48 16.1 °C 14.8 °C 995.8 hPa Calm     92% 0.3 mm 0 W/m2
06:53 16.1 °C 14.8 °C 995.5 hPa Calm     92% 0.0 mm 0 W/m2
06:58 15.9 °C 14.8 °C 995.8 hPa Calm     93% 0.0 mm 0 W/m2
07:03 15.8 °C 14.7 °C 995.5 hPa Calm     93% 0.0 mm 0 W/m2
07:08 15.7 °C 14.7 °C 995.5 hPa Calm     94% 0.0 mm 2 W/m2
07:13 15.7 °C 14.7 °C 995.8 hPa Calm     94% 0.0 mm 3 W/m2
07:18 15.7 °C 14.7 °C 995.8 hPa Calm     94% 0.0 mm 4 W/m2
07:23 15.6 °C 14.7 °C 995.8 hPa Calm     94% 0.0 mm 5 W/m2
07:28 15.6 °C 14.8 °C 995.8 hPa Calm     95% 0.0 mm 6 W/m2
07:33 15.6 °C 14.8 °C 995.5 hPa Calm     95% 0.0 mm 8 W/m2
07:38 15.5 °C 14.9 °C 995.8 hPa Calm     96% 0.0 mm 10 W/m2
07:43 15.6 °C 15.0 °C 995.5 hPa Calm     96% 0.0 mm 13 W/m2
07:48 15.6 °C 15.0 °C 995.5 hPa Calm     96% 0.0 mm 14 W/m2
08:06 15.6 °C 15.0 °C 995.8 hPa Calm     96% 0.0 mm 23 W/m2
08:11 15.7 °C 15.2 °C 995.8 hPa Calm   2.6 km/h 97% 0.0 mm 25 W/m2
08:16 15.7 °C 15.2 °C 996.2 hPa Calm   5.0 km/h 97% 0.0 mm 27 W/m2
08:21 15.7 °C 15.2 °C 995.8 hPa Calm   5.0 km/h 97% 0.0 mm 28 W/m2
08:26 15.8 °C 15.3 °C 995.5 hPa Calm   2.6 km/h 97% 0.0 mm 27 W/m2
08:31 15.8 °C 15.3 °C 995.5 hPa Calm     97% 0.0 mm 29 W/m2
08:36 15.8 °C 15.3 °C 995.5 hPa Calm     97% 0.0 mm 28 W/m2
08:41 15.8 °C 15.5 °C 995.1 hPa Calm     98% 0.0 mm 35 W/m2
08:46 15.9 °C 15.6 °C 995.1 hPa Calm     98% 0.0 mm 43 W/m2
08:51 15.9 °C 15.6 °C 995.1 hPa Calm     98% 0.0 mm 49 W/m2
08:56 16.0 °C 15.6 °C 995.1 hPa Calm     97% 0.0 mm 60 W/m2
09:01 16.1 °C 15.6 °C 995.1 hPa NW 2.6 km/h 5.0 km/h 97% 0.0 mm 68 W/m2
09:06 16.3 °C 15.8 °C 995.1 hPa North 2.6 km/h 5.0 km/h 97% 0.0 mm 71 W/m2
09:11 16.4 °C 15.9 °C 994.8 hPa Calm   5.0 km/h 97% 0.0 mm 72 W/m2
09:16 16.6 °C 16.1 °C 994.8 hPa Calm   5.0 km/h 97% 0.0 mm 88 W/m2
09:21 16.7 °C 16.2 °C 994.5 hPa Calm   3.5 km/h 97% 0.0 mm 95 W/m2
09:26 16.9 °C 16.4 °C 994.8 hPa North 2.6 km/h 3.5 km/h 97% 0.0 mm 96 W/m2
09:31 17.0 °C 16.2 °C 994.8 hPa Calm   3.5 km/h 95% 0.0 mm 95 W/m2
09:36 17.1 °C 16.3 °C 994.8 hPa Calm   3.5 km/h 95% 0.0 mm 95 W/m2
09:41 17.1 °C 16.1 °C 994.5 hPa NNW 2.6 km/h 6.1 km/h 94% 0.0 mm 97 W/m2
09:46 17.2 °C 16.2 °C 994.1 hPa NNW 3.5 km/h 9.7 km/h 94% 0.0 mm 93 W/m2
09:51 17.6 °C 16.4 °C 994.1 hPa NNW 3.5 km/h 13.4 km/h 93% 0.0 mm 89 W/m2
09:56 17.9 °C 16.6 °C 994.1 hPa NNW 3.5 km/h 13.4 km/h 92% 0.0 mm 96 W/m2
10:01 18.2 °C 16.7 °C 993.8 hPa North 8.7 km/h 15.8 km/h 91% 0.0 mm 102 W/m2
10:06 18.5 °C 16.7 °C 993.8 hPa North 6.1 km/h 15.8 km/h 89% 0.0 mm 103 W/m2
10:11 18.5 °C 16.5 °C 993.8 hPa North 8.7 km/h 19.5 km/h 88% 0.0 mm 119 W/m2
10:16 18.5 °C 16.5 °C 993.8 hPa North 11.1 km/h 19.5 km/h 88% 0.0 mm 120 W/m2
10:21 18.7 °C 16.7 °C 993.5 hPa NNW 6.1 km/h 19.5 km/h 88% 0.0 mm 119 W/m2
10:26 18.9 °C 16.7 °C 993.5 hPa NNW 14.8 km/h 19.5 km/h 87% 0.0 mm 118 W/m2
10:31 19.1 °C 16.3 °C 993.5 hPa North 8.7 km/h 19.5 km/h 84% 0.0 mm 98 W/m2
10:36 19.2 °C 16.4 °C 993.8 hPa North 9.7 km/h 20.9 km/h 84% 0.0 mm 106 W/m2
10:41 19.2 °C 16.4 °C 993.5 hPa NNW 9.7 km/h 20.9 km/h 84% 0.0 mm 126 W/m2
10:46 19.3 °C 16.6 °C 993.5 hPa North 7.2 km/h 20.9 km/h 84% 0.0 mm 134 W/m2
10:51 19.3 °C 16.6 °C 993.5 hPa North 2.6 km/h 20.9 km/h 84% 0.0 mm 147 W/m2
10:56 19.4 °C 16.7 °C 993.5 hPa NNW 8.7 km/h 17.2 km/h 84% 0.0 mm 162 W/m2
11:01 19.6 °C 16.8 °C 993.5 hPa North 3.5 km/h 17.2 km/h 84% 0.0 mm 144 W/m2
11:06 19.7 °C 16.9 °C 993.5 hPa NNW 6.1 km/h 13.4 km/h 84% 0.0 mm 149 W/m2
11:11 19.8 °C 17.1 °C 993.5 hPa NNW 5.0 km/h 14.8 km/h 84% 0.0 mm 141 W/m2
11:16 19.8 °C 17.1 °C 993.5 hPa NNW 5.0 km/h 14.8 km/h 84% 0.0 mm 131 W/m2
11:21 19.8 °C 17.2 °C 993.8 hPa Calm   9.7 km/h 85% 0.0 mm 124 W/m2
11:26 19.9 °C 17.3 °C 993.5 hPa NW 1.1 km/h 9.7 km/h 85% 0.0 mm 115 W/m2
11:31 20.0 °C 17.2 °C 993.5 hPa NW 1.1 km/h 8.7 km/h 84% 0.0 mm 112 W/m2
11:36 20.0 °C 17.1 °C 993.1 hPa NNW 3.5 km/h 7.2 km/h 83% 0.0 mm 112 W/m2
11:41 20.1 °C 17.1 °C 993.1 hPa NNW 3.5 km/h 7.2 km/h 83% 0.0 mm 144 W/m2
11:46 20.3 °C 17.3 °C 993.1 hPa North 1.1 km/h 11.1 km/h 83% 0.0 mm 185 W/m2
11:51 20.5 °C 17.6 °C 993.1 hPa North 1.1 km/h 11.1 km/h 83% 0.0 mm 233 W/m2
11:56 20.8 °C 17.4 °C 992.8 hPa North 3.5 km/h 8.7 km/h 81% 0.0 mm 240 W/m2
12:01 21.0 °C 17.1 °C 992.8 hPa North 6.1 km/h 11.1 km/h 78% 0.0 mm 235 W/m2
12:06 21.2 °C 16.8 °C 992.8 hPa North 6.1 km/h 12.2 km/h 76% 0.0 mm 244 W/m2
12:11 21.3 °C 16.5 °C 992.8 hPa NNW 6.1 km/h 12.2 km/h 74% 0.0 mm 202 W/m2
12:16 21.5 °C 16.7 °C 992.8 hPa NNW 3.5 km/h 12.2 km/h 74% 0.0 mm 226 W/m2
12:21 21.8 °C 16.8 °C 992.8 hPa NNW 5.0 km/h 11.1 km/h 73% 0.0 mm 257 W/m2
12:26 22.1 °C 16.6 °C 992.8 hPa North 1.1 km/h 9.7 km/h 71% 0.0 mm 201 W/m2
12:31 22.0 °C 16.3 °C 992.4 hPa NNE 5.0 km/h 9.7 km/h 70% 0.0 mm 269 W/m2
12:36 22.1 °C 16.4 °C 992.4 hPa NNE 7.2 km/h 11.1 km/h 70% 0.0 mm 219 W/m2
12:41 21.9 °C 16.7 °C 992.4 hPa NNE 3.5 km/h 12.2 km/h 72% 0.0 mm 199 W/m2
12:46 21.9 °C 16.4 °C 992.4 hPa NNE 5.0 km/h 12.2 km/h 71% 0.0 mm 199 W/m2
12:51 22.0 °C 16.5 °C 992.1 hPa NNE 1.1 km/h 11.1 km/h 71% 0.0 mm 216 W/m2
13:09 22.4 °C 16.7 °C 992.1 hPa NNE 2.6 km/h 9.7 km/h 70% 0.0 mm 148 W/m2
13:14 22.4 °C 16.7 °C 992.1 hPa Calm   5.0 km/h 70% 0.0 mm 155 W/m2
13:19 22.4 °C 16.9 °C 991.8 hPa Calm   3.5 km/h 71% 0.0 mm 147 W/m2
13:24 22.1 °C 16.8 °C 992.4 hPa SW 7.2 km/h 9.7 km/h 72% 0.0 mm 129 W/m2
13:29 21.1 °C 16.5 °C 992.1 hPa WSW 7.2 km/h 17.2 km/h 75% 0.0 mm 123 W/m2
13:34 20.3 °C 16.8 °C 992.4 hPa SW 7.2 km/h 17.2 km/h 80% 0.0 mm 120 W/m2
13:39 20.0 °C 17.1 °C 992.4 hPa SW 13.4 km/h 17.2 km/h 83% 0.0 mm 119 W/m2
13:44 19.7 °C 17.1 °C 992.4 hPa SW 9.7 km/h 20.9 km/h 85% 0.0 mm 118 W/m2
13:49 19.4 °C 16.8 °C 992.4 hPa WSW 8.7 km/h 20.9 km/h 85% 0.0 mm 102 W/m2
13:54 19.3 °C 16.9 °C 992.4 hPa WSW 18.3 km/h 23.3 km/h 86% 0.0 mm 77 W/m2
13:59 18.9 °C 16.9 °C 992.8 hPa SW 17.2 km/h 25.6 km/h 88% 0.0 mm 40 W/m2
14:04 18.0 °C 16.5 °C 992.8 hPa SW 23.3 km/h 30.6 km/h 91% 1.3 mm 38 W/m2
14:09 17.3 °C 16.2 °C 992.8 hPa SW 17.2 km/h 33.1 km/h 93% 1.5 mm 52 W/m2
14:14 17.2 °C 16.2 °C 993.1 hPa SW 13.4 km/h 33.1 km/h 94% 1.5 mm 62 W/m2
14:19 17.0 °C 15.9 °C 993.1 hPa SW 24.5 km/h 39.3 km/h 93% 1.5 mm 108 W/m2
14:24 17.0 °C 15.6 °C 992.8 hPa SW 13.4 km/h 39.3 km/h 91% 1.5 mm 179 W/m2
14:29 16.8 °C 15.3 °C 993.1 hPa SW 17.2 km/h 34.3 km/h 91% 1.5 mm 160 W/m2
14:34 16.7 °C 15.1 °C 993.1 hPa SW 15.8 km/h 34.3 km/h 90% 1.5 mm 140 W/m2
14:39 16.6 °C 14.9 °C 993.1 hPa SW 9.7 km/h 27.0 km/h 90% 2.3 mm 110 W/m2
14:44 16.5 °C 15.1 °C 993.5 hPa WSW 1.1 km/h 21.9 km/h 91% 2.3 mm 104 W/m2
14:49 16.5 °C 15.2 °C 993.1 hPa Calm   15.8 km/h 92% 2.3 mm 87 W/m2
14:54 16.6 °C 15.3 °C 993.5 hPa Calm   5.0 km/h 92% 2.3 mm 75 W/m2
14:59 16.7 °C 15.2 °C 993.5 hPa Calm   5.0 km/h 91% 2.3 mm 95 W/m2
15:04 16.7 °C 14.7 °C 993.5 hPa Calm   6.1 km/h 88% 1.3 mm 79 W/m2
15:09 16.8 °C 14.3 °C 993.8 hPa West 5.0 km/h 14.8 km/h 85% 1.0 mm 79 W/m2
15:14 16.8 °C 13.6 °C 994.1 hPa West 13.4 km/h 20.9 km/h 81% 1.0 mm 48 W/m2
15:19 16.3 °C 12.3 °C 994.1 hPa West 5.0 km/h 20.9 km/h 77% 1.3 mm 45 W/m2
15:24 15.7 °C 12.4 °C 993.8 hPa West 3.5 km/h 20.9 km/h 81% 2.3 mm 48 W/m2
15:29 15.4 °C 12.7 °C 993.5 hPa Calm   7.2 km/h 84% 2.3 mm 49 W/m2
15:34 15.4 °C 12.9 °C 993.5 hPa Calm   2.6 km/h 85% 2.3 mm 56 W/m2
15:39 15.5 °C 13.2 °C 993.8 hPa Calm     86% 1.5 mm 115 W/m2
15:44 15.6 °C 13.6 °C 994.1 hPa NNW 3.5 km/h 7.2 km/h 88% 1.5 mm 130 W/m2
15:49 15.8 °C 14.2 °C 993.8 hPa Calm   8.7 km/h 90% 1.5 mm 99 W/m2
15:54 16.1 °C 14.4 °C 994.1 hPa Calm   8.7 km/h 90% 1.5 mm 82 W/m2
15:59 16.3 °C 14.5 °C 994.1 hPa North 8.7 km/h 12.2 km/h 89% 1.5 mm 101 W/m2
16:04 16.5 °C 14.5 °C 994.1 hPa NNW 3.5 km/h 15.8 km/h 88% 1.5 mm 94 W/m2
16:09 17.1 °C 14.7 °C 994.1 hPa Calm   15.8 km/h 86% 1.5 mm 77 W/m2
16:14 16.5 °C 14.0 °C 994.1 hPa Calm   12.2 km/h 85% 1.5 mm 55 W/m2
16:19 16.1 °C 13.6 °C 994.5 hPa Calm   7.2 km/h 85% 1.3 mm 39 W/m2
16:24 16.0 °C 13.5 °C 994.1 hPa Calm   6.1 km/h 85% 0.0 mm 40 W/m2
16:29 16.0 °C 13.1 °C 994.1 hPa SW 8.7 km/h 13.4 km/h 83% 0.0 mm 38 W/m2
16:34 16.4 °C 11.9 °C 994.1 hPa SW 12.2 km/h 19.5 km/h 75% 0.0 mm 38 W/m2
16:39 16.6 °C 11.7 °C 994.1 hPa WSW 7.2 km/h 19.5 km/h 73% 0.0 mm 33 W/m2
16:44 16.7 °C 11.8 °C 994.1 hPa WSW 6.1 km/h 17.2 km/h 73% 0.0 mm 29 W/m2
16:49 16.6 °C 11.9 °C 994.1 hPa Calm   12.2 km/h 74% 0.0 mm 24 W/m2
16:54 16.3 °C 12.1 °C 994.5 hPa WNW 2.6 km/h 9.7 km/h 76% 0.0 mm 17 W/m2
16:59 16.2 °C 12.2 °C 994.5 hPa Calm   7.2 km/h 77% 0.0 mm 13 W/m2
17:04 16.1 °C 12.3 °C 994.5 hPa NNW 1.1 km/h 7.2 km/h 78% 0.0 mm 13 W/m2
17:09 15.9 °C 12.7 °C 994.5 hPa NNW 2.6 km/h 6.1 km/h 81% 0.0 mm 11 W/m2
17:14 15.7 °C 12.7 °C 994.5 hPa NNW 2.6 km/h 7.2 km/h 82% 0.0 mm 7 W/m2
17:19 15.6 °C 12.6 °C 994.8 hPa Calm   9.7 km/h 82% 0.0 mm 5 W/m2
17:24 15.4 °C 12.3 °C 994.8 hPa Calm   9.7 km/h 82% 0.0 mm 2 W/m2
17:29 15.0 °C 12.3 °C 995.1 hPa Calm     84% 0.0 mm 0 W/m2
17:34 14.8 °C 12.5 °C 995.1 hPa WNW 1.1 km/h 5.0 km/h 86% 0.0 mm 0 W/m2
17:39 14.6 °C 12.4 °C 995.1 hPa Calm   5.0 km/h 87% 0.0 mm 0 W/m2
17:44 14.4 °C 12.3 °C 995.1 hPa Calm   5.0 km/h 87% 0.0 mm 0 W/m2
17:49 14.1 °C 12.2 °C 995.1 hPa Calm     88% 0.0 mm 0 W/m2
17:54 14.0 °C 12.2 °C 995.5 hPa Calm     89% 0.0 mm 0 W/m2
17:59 13.9 °C 12.3 °C 995.5 hPa Calm     90% 0.0 mm 0 W/m2
18:04 13.7 °C 12.3 °C 995.5 hPa Calm     91% 0.0 mm 0 W/m2
18:09 13.6 °C 12.3 °C 995.5 hPa Calm     92% 0.0 mm 0 W/m2
18:14 13.6 °C 12.7 °C 995.5 hPa Calm   6.1 km/h 94% 0.0 mm 0 W/m2
18:19 13.5 °C 12.6 °C 995.5 hPa Calm   6.1 km/h 94% 0.0 mm 0 W/m2
18:24 13.4 °C 12.6 °C 996.2 hPa Calm   2.6 km/h 95% 0.0 mm 0 W/m2
18:29 13.2 °C 12.4 °C 995.8 hPa Calm     95% 0.0 mm 0 W/m2
18:34 13.2 °C 12.4 °C 996.2 hPa WNW 2.6 km/h 6.1 km/h 95% 0.0 mm 0 W/m2
18:39 13.1 °C 12.3 °C 996.2 hPa Calm   6.1 km/h 95% 0.0 mm 0 W/m2
18:44 13.0 °C 12.2 °C 995.8 hPa NW 2.6 km/h 7.2 km/h 95% 0.0 mm 0 W/m2
18:49 13.0 °C 12.4 °C 996.2 hPa NW 2.6 km/h 7.2 km/h 96% 0.0 mm 0 W/m2
18:54 12.8 °C 12.2 °C 995.8 hPa NW 1.1 km/h 6.1 km/h 96% 0.0 mm 0 W/m2
18:59 12.7 °C 12.1 °C 995.8 hPa Calm   5.0 km/h 96% 0.0 mm 0 W/m2
19:04 12.6 °C 12.0 °C 996.2 hPa Calm   3.5 km/h 96% 0.0 mm 0 W/m2
19:09 12.6 °C 12.0 °C 996.2 hPa Calm   2.6 km/h 96% 0.0 mm 0 W/m2
19:14 12.5 °C 11.9 °C 996.2 hPa Calm   5.0 km/h 96% 0.0 mm 0 W/m2
19:19 12.4 °C 11.8 °C 996.2 hPa Calm   5.0 km/h 96% 0.0 mm 0 W/m2
19:24 12.3 °C 11.7 °C 996.2 hPa Calm     96% 0.0 mm 0 W/m2
19:29 12.3 °C 11.8 °C 996.5 hPa Calm     97% 0.0 mm 0 W/m2
19:34 12.1 °C 11.7 °C 996.5 hPa Calm     97% 0.0 mm 0 W/m2
19:39 11.9 °C 11.6 °C 996.5 hPa Calm     98% 0.0 mm 0 W/m2
19:44 11.8 °C 11.3 °C 996.8 hPa Calm     97% 0.0 mm 0 W/m2
19:49 11.9 °C 11.6 °C 996.5 hPa Calm     98% 0.0 mm 0 W/m2
19:54 12.0 °C 11.6 °C 996.5 hPa NW 5.0 km/h 7.2 km/h 97% 0.0 mm 0 W/m2
19:59 12.2 °C 11.7 °C 996.5 hPa NW 3.5 km/h 7.2 km/h 97% 0.0 mm 0 W/m2
20:04 12.2 °C 11.7 °C 996.8 hPa Calm   8.7 km/h 97% 0.0 mm 0 W/m2
20:09 12.2 °C 11.7 °C 996.8 hPa Calm   8.7 km/h 97% 0.0 mm 0 W/m2
20:14 12.2 °C 11.7 °C 996.8 hPa Calm     97% 0.0 mm 0 W/m2
20:19 12.2 °C 11.7 °C 996.8 hPa Calm     97% 0.0 mm 0 W/m2
20:24 12.2 °C 11.7 °C 996.8 hPa Calm     97% 0.0 mm 0 W/m2
20:29 12.2 °C 11.7 °C 997.2 hPa Calm     97% 0.0 mm 0 W/m2
20:34 12.2 °C 11.7 °C 997.2 hPa Calm     97% 0.0 mm 0 W/m2
20:39 12.3 °C 11.8 °C 997.2 hPa Calm     97% 0.0 mm 0 W/m2
20:44 12.4 °C 11.9 °C 997.2 hPa Calm     97% 0.0 mm 0 W/m2
20:49 12.5 °C 12.1 °C 997.5 hPa Calm     97% 0.0 mm 0 W/m2
20:54 12.5 °C 12.1 °C 997.9 hPa Calm   3.5 km/h 97% 0.0 mm 0 W/m2
20:59 12.9 °C 12.4 °C 997.5 hPa West 7.2 km/h 11.1 km/h 97% 0.0 mm 0 W/m2
21:04 13.5 °C 13.3 °C 997.9 hPa WSW 9.7 km/h 21.9 km/h 99% 0.0 mm 0 W/m2
21:09 13.8 °C 13.7 °C 997.9 hPa Calm   24.5 km/h 99% 2.0 mm 0 W/m2
21:14 13.6 °C 13.3 °C 997.9 hPa South 3.5 km/h 24.5 km/h 98% 3.0 mm 0 W/m2
21:19 13.7 °C 13.4 °C 997.9 hPa South 7.2 km/h 17.2 km/h 98% 3.6 mm 0 W/m2
21:24 13.7 °C 13.4 °C 997.9 hPa South 2.6 km/h 19.5 km/h 98% 3.6 mm 0 W/m2
21:29 13.9 °C 13.3 °C 997.9 hPa South 14.8 km/h 23.3 km/h 96% 3.6 mm 0 W/m2
21:34 14.2 °C 13.3 °C 997.9 hPa South 17.2 km/h 24.5 km/h 94% 3.6 mm 0 W/m2
21:39 14.3 °C 12.8 °C 998.2 hPa South 14.8 km/h 25.6 km/h 91% 3.6 mm 0 W/m2
21:44 14.3 °C 12.7 °C 998.5 hPa SSW 17.2 km/h 30.6 km/h 90% 3.6 mm 0 W/m2
21:49 14.4 °C 12.6 °C 998.5 hPa SW 14.8 km/h 30.6 km/h 89% 3.8 mm 0 W/m2
21:54 14.0 °C 12.4 °C 998.5 hPa SW 19.5 km/h 29.4 km/h 90% 4.6 mm 0 W/m2
21:59 13.7 °C 12.4 °C 998.9 hPa SW 14.8 km/h 30.6 km/h 92% 4.6 mm 0 W/m2
22:04 13.7 °C 12.4 °C 998.9 hPa SSW 13.4 km/h 30.6 km/h 92% 4.6 mm 0 W/m2
22:09 13.7 °C 12.4 °C 999.2 hPa SW 17.2 km/h 28.0 km/h 92% 2.3 mm 0 W/m2
22:14 13.6 °C 12.3 °C 999.2 hPa SSW 15.8 km/h 28.0 km/h 92% 2.0 mm 0 W/m2
22:19 13.5 °C 12.2 °C 999.2 hPa SSW 15.8 km/h 28.0 km/h 92% 1.8 mm 0 W/m2
22:24 13.5 °C 12.2 °C 999.2 hPa SW 11.1 km/h 28.0 km/h 92% 1.8 mm 0 W/m2
22:29 13.6 °C 12.3 °C 999.5 hPa SW 11.1 km/h 27.0 km/h 92% 2.0 mm 0 W/m2
22:34 13.7 °C 12.4 °C 999.5 hPa SW 19.5 km/h 29.4 km/h 92% 2.3 mm 0 W/m2
22:39 13.6 °C 12.3 °C 999.5 hPa SW 15.8 km/h 29.4 km/h 92% 2.3 mm 0 W/m2
22:44 13.6 °C 12.3 °C 999.5 hPa SW 19.5 km/h 29.4 km/h 92% 3.0 mm 0 W/m2
22:49 13.4 °C 12.4 °C 999.5 hPa WSW 7.2 km/h 25.6 km/h 94% 3.3 mm 0 W/m2
22:54 13.0 °C 12.2 °C 999.5 hPa WSW 9.7 km/h 27.0 km/h 95% 3.3 mm 0 W/m2
22:59 12.8 °C 12.2 °C 999.9 hPa West 20.9 km/h 27.0 km/h 96% 3.6 mm 0 W/m2
23:04 12.5 °C 11.9 °C 999.9 hPa WSW 18.3 km/h 25.6 km/h 96% 3.8 mm 0 W/m2
23:09 12.3 °C 11.8 °C 999.9 hPa WSW 18.3 km/h 27.0 km/h 97% 3.8 mm 0 W/m2
23:14 12.0 °C 11.4 °C 999.9 hPa WSW 11.1 km/h 27.0 km/h 96% 3.6 mm 0 W/m2
23:19 11.9 °C 11.4 °C 1000.2 hPa WSW 13.4 km/h 29.4 km/h 97% 3.6 mm 0 W/m2
23:24 11.8 °C 11.3 °C 1000.2 hPa WSW 15.8 km/h 29.4 km/h 97% 3.6 mm 0 W/m2
23:29 11.7 °C 11.2 °C 1000.2 hPa West 5.0 km/h 23.3 km/h 97% 3.3 mm 0 W/m2
23:34 11.6 °C 11.2 °C 1000.2 hPa West 6.1 km/h 23.3 km/h 97% 3.0 mm 0 W/m2
23:39 11.6 °C 11.2 °C 1000.2 hPa WSW 11.1 km/h 23.3 km/h 97% 3.0 mm 0 W/m2
23:44 11.6 °C 11.2 °C 1000.6 hPa WSW 5.0 km/h 19.5 km/h 97% 2.8 mm 0 W/m2
23:49 11.5 °C 11.1 °C 1000.6 hPa West 5.0 km/h 19.5 km/h 97% 2.0 mm 0 W/m2
23:54 11.5 °C 11.1 °C 1000.2 hPa West 9.7 km/h 15.8 km/h 97% 1.8 mm 0 W/m2
23:59 11.5 °C 11.1 °C 1000.6 hPa WNW 9.7 km/h 17.2 km/h 97% 1.5 mm 0 W/m2
Northern Hawkes Bay. New Zealand Historic Data
Compliments of Weather Underground - 2.25 mb